Kota Salam — 9V2123 — position and weather

sailwx.info

Track history (hours):
 
Tides and Currents Weather Stations Pressure Air Temp Water Temp Dewpoint Dewpoint Depression Visibility Wind Speed Wind Dir Waves Ship Positions

Kota Salam

Last reported at 2018-Feb-16 07:17 UTC. Time now 2018-Feb-21 05:23 UTC.
Position N 01°31' E 103°03'.

Length 228 m; draft 12.3 m.

Type: Ship (hazmat cat A). MMSI: 565110000.

Date/timePositionNaut miles runAvg speedWind from/ knotsBaromVisibWave heightAir tempDewpointWater temp
2018-Feb-16 07:17N 01°31' E 103°03'616.6
2018-Feb-16 06:54N 01°27' E 103°08'716.2
2018-Feb-16 06:27N 01°22' E 103°14'715.7
2018-Feb-16 06:01N 01°18' E 103°19'815.1
2018-Feb-16 05:30N 01°14' E 103°26'814.4
2018-Feb-16 04:58N 01°12' E 103°33'612.8
2018-Feb-16 04:30N 01°11' E 103°39'4 5.5
2018-Feb-16 03:50N 01°10' E 103°43'0 0.0
2018-Feb-16 03:29N 01°10' E 103°43'0 0.1
2018-Feb-16 02:59N 01°10' E 103°42'0 0.0
2018-Feb-16 02:29N 01°10' E 103°42'0 0.3
2018-Feb-16 01:53N 01°10' E 103°42'0 0.1
2018-Feb-16 01:29N 01°11' E 103°42'0 0.1
2018-Feb-16 00:59N 01°11' E 103°42'0 0.0
2018-Feb-16 00:29N 01°11' E 103°42'0 0.2
2018-Feb-15 23:59N 01°10' E 103°42'2 4.6
2018-Feb-15 23:30N 01°09' E 103°44'611.8
2018-Feb-15 23:00N 01°11' E 103°49'5 9.7
2018-Feb-15 22:31N 01°14' E 103°53'0 0.5
2018-Feb-15 21:57N 01°14' E 103°53'0 0.0
2018-Feb-15 21:27N 01°14' E 103°53'0 0.0
2018-Feb-15 20:57N 01°14' E 103°53'0 0.0
2018-Feb-15 20:27N 01°14' E 103°53'0 0.0
2018-Feb-15 19:57N 01°14' E 103°53'0 0.0
2018-Feb-15 19:27N 01°14' E 103°53'0 0.0
2018-Feb-15 18:54N 01°14' E 103°53'0 0.0
2018-Feb-15 18:27N 01°14' E 103°53'0 0.0
2018-Feb-15 17:57N 01°14' E 103°53'0 0.0
2018-Feb-15 17:21N 01°14' E 103°53'0 0.0
2018-Feb-15 16:57N 01°14' E 103°53'1 1.2
2018-Feb-15 16:13N 01°14' E 103°52'1 5.9
2018-Feb-15 16:01N 01°15' E 103°51'1 1.8
2018-Feb-15 15:31N 01°16' E 103°50'0 0.0
2018-Feb-15 14:58N 01°16' E 103°50'0 0.0
2018-Feb-15 14:28N 01°16' E 103°50'0 0.0
2018-Feb-15 13:58N 01°16' E 103°50'0 0.0
2018-Feb-15 13:28N 01°16' E 103°50'0 0.0
2018-Feb-15 12:58N 01°16' E 103°50'0 0.0
2018-Feb-15 12:28N 01°16' E 103°50'0 0.0
2018-Feb-15 11:52N 01°16' E 103°50'0 0.1
2018-Feb-15 11:25N 01°16' E 103°50'0 0.2
2018-Feb-15 11:01N 01°16' E 103°50'0 0.0
2018-Feb-15 10:28N 01°16' E 103°50'0 0.0
2018-Feb-15 09:58N 01°16' E 103°50'0 0.0
2018-Feb-15 09:28N 01°16' E 103°50'0 0.0
2018-Feb-15 08:58N 01°16' E 103°50'0 0.0
2018-Feb-15 08:28N 01°16' E 103°50'0 0.0
2018-Feb-15 08:01N 01°16' E 103°50'0 0.0
2018-Feb-15 07:25N 01°16' E 103°50'0 0.0
2018-Feb-15 07:01N 01°16' E 103°50'0 0.0
2018-Feb-15 06:25N 01°16' E 103°50'0 0.0
2018-Feb-15 05:58N 01°16' E 103°50'0 0.1
2018-Feb-15 05:28N 01°16' E 103°50'0 0.1
2018-Feb-15 04:58N 01°16' E 103°50'0 0.0
2018-Feb-15 04:31N 01°16' E 103°50'0 0.0
2018-Feb-15 04:00N 01°16' E 103°50'1 1.4
2018-Feb-15 03:30N 01°16' E 103°51'3 5.2
2018-Feb-15 02:57N 01°14' E 103°54'3 0.2
2018-Feb-14 11:11N 01°17' E 103°54'0 2.7
2018-Feb-14 11:00N 01°17' E 103°54'3 5.3
2018-Feb-14 10:29N 01°15' E 103°56'5 9.6
2018-Feb-14 09:58N 01°13' E 103°52'2 2.7
2018-Feb-14 09:04N 01°13' E 103°49'0 0.1
2018-Feb-14 08:58N 01°13' E 103°49'0 0.0
2018-Feb-14 08:30N 01°13' E 103°49'0 0.0
2018-Feb-14 08:01N 01°13' E 103°49'0 0.0
2018-Feb-14 07:30N 01°13' E 103°49'0 0.5
2018-Feb-14 06:58N 01°13' E 103°49'2 4.2
2018-Feb-14 06:29N 01°12' E 103°51'4 7.0
2018-Feb-14 05:58N 01°14' E 103°54'4 8.7
2018-Feb-14 05:29N 01°15' E 103°58'510.0
2018-Feb-14 04:58N 01°16' E 104°03'5 9.4
2018-Feb-14 04:25N 01°16' E 104°09'  
2018-Feb-09 03:00N 23°17' E 117°47'  
Track history (hours):
 
Tides and Currents Weather Stations Pressure Air Temp Water Temp Dewpoint Dewpoint Depression Visibility Wind Speed Wind Dir Waves Ship Positions

Kota Salam

Last reported at 2018-Feb-16 07:17 UTC. Time now 2018-Feb-21 05:23 UTC.
Position N 01°31' E 103°03'.

Length 228 m; draft 12.3 m.

Type: Ship (hazmat cat A). MMSI: 565110000.

Date/timePositionNaut miles runAvg speedWind from/ knotsBaromVisibWave heightAir tempDewpointWater temp
2018-Feb-16 07:17N 01°31' E 103°03'616.6
2018-Feb-16 06:54N 01°27' E 103°08'716.2
2018-Feb-16 06:27N 01°22' E 103°14'715.7
2018-Feb-16 06:01N 01°18' E 103°19'815.1
2018-Feb-16 05:30N 01°14' E 103°26'814.4
2018-Feb-16 04:58N 01°12' E 103°33'612.8
2018-Feb-16 04:30N 01°11' E 103°39'4 5.5
2018-Feb-16 03:50N 01°10' E 103°43'0 0.0
2018-Feb-16 03:29N 01°10' E 103°43'0 0.1
2018-Feb-16 02:59N 01°10' E 103°42'0 0.0
2018-Feb-16 02:29N 01°10' E 103°42'0 0.3
2018-Feb-16 01:53N 01°10' E 103°42'0 0.1
2018-Feb-16 01:29N 01°11' E 103°42'0 0.1
2018-Feb-16 00:59N 01°11' E 103°42'0 0.0
2018-Feb-16 00:29N 01°11' E 103°42'0 0.2
2018-Feb-15 23:59N 01°10' E 103°42'2 4.6
2018-Feb-15 23:30N 01°09' E 103°44'611.8
2018-Feb-15 23:00N 01°11' E 103°49'5 9.7
2018-Feb-15 22:31N 01°14' E 103°53'0 0.5
2018-Feb-15 21:57N 01°14' E 103°53'0 0.0
2018-Feb-15 21:27N 01°14' E 103°53'0 0.0
2018-Feb-15 20:57N 01°14' E 103°53'0 0.0
2018-Feb-15 20:27N 01°14' E 103°53'0 0.0
2018-Feb-15 19:57N 01°14' E 103°53'0 0.0
2018-Feb-15 19:27N 01°14' E 103°53'0 0.0
2018-Feb-15 18:54N 01°14' E 103°53'0 0.0
2018-Feb-15 18:27N 01°14' E 103°53'0 0.0
2018-Feb-15 17:57N 01°14' E 103°53'0 0.0
2018-Feb-15 17:21N 01°14' E 103°53'0 0.0
2018-Feb-15 16:57N 01°14' E 103°53'1 1.2
2018-Feb-15 16:13N 01°14' E 103°52'1 5.9
2018-Feb-15 16:01N 01°15' E 103°51'1 1.8
2018-Feb-15 15:31N 01°16' E 103°50'0 0.0
2018-Feb-15 14:58N 01°16' E 103°50'0 0.0
2018-Feb-15 14:28N 01°16' E 103°50'0 0.0
2018-Feb-15 13:58N 01°16' E 103°50'0 0.0
2018-Feb-15 13:28N 01°16' E 103°50'0 0.0
2018-Feb-15 12:58N 01°16' E 103°50'0 0.0
2018-Feb-15 12:28N 01°16' E 103°50'0 0.0
2018-Feb-15 11:52N 01°16' E 103°50'0 0.1
2018-Feb-15 11:25N 01°16' E 103°50'0 0.2
2018-Feb-15 11:01N 01°16' E 103°50'0 0.0
2018-Feb-15 10:28N 01°16' E 103°50'0 0.0
2018-Feb-15 09:58N 01°16' E 103°50'0 0.0
2018-Feb-15 09:28N 01°16' E 103°50'0 0.0
2018-Feb-15 08:58N 01°16' E 103°50'0 0.0
2018-Feb-15 08:28N 01°16' E 103°50'0 0.0
2018-Feb-15 08:01N 01°16' E 103°50'0 0.0
2018-Feb-15 07:25N 01°16' E 103°50'0 0.0
2018-Feb-15 07:01N 01°16' E 103°50'0 0.0
2018-Feb-15 06:25N 01°16' E 103°50'0 0.0
2018-Feb-15 05:58N 01°16' E 103°50'0 0.1
2018-Feb-15 05:28N 01°16' E 103°50'0 0.1
2018-Feb-15 04:58N 01°16' E 103°50'0 0.0
2018-Feb-15 04:31N 01°16' E 103°50'0 0.0
2018-Feb-15 04:00N 01°16' E 103°50'1 1.4
2018-Feb-15 03:30N 01°16' E 103°51'3 5.2
2018-Feb-15 02:57N 01°14' E 103°54'3 0.2
2018-Feb-14 11:11N 01°17' E 103°54'0 2.7
2018-Feb-14 11:00N 01°17' E 103°54'3 5.3
2018-Feb-14 10:29N 01°15' E 103°56'5 9.6
2018-Feb-14 09:58N 01°13' E 103°52'2 2.7
2018-Feb-14 09:04N 01°13' E 103°49'0 0.1
2018-Feb-14 08:58N 01°13' E 103°49'0 0.0
2018-Feb-14 08:30N 01°13' E 103°49'0 0.0
2018-Feb-14 08:01N 01°13' E 103°49'0 0.0
2018-Feb-14 07:30N 01°13' E 103°49'0 0.5
2018-Feb-14 06:58N 01°13' E 103°49'2 4.2
2018-Feb-14 06:29N 01°12' E 103°51'4 7.0
2018-Feb-14 05:58N 01°14' E 103°54'4 8.7
2018-Feb-14 05:29N 01°15' E 103°58'510.0
2018-Feb-14 04:58N 01°16' E 104°03'5 9.4
2018-Feb-14 04:25N 01°16' E 104°09'  
2018-Feb-09 03:00N 23°17' E 117°47'  

Dump ship's entire track history